sensor_id;sensor_type;location;lat;lon;timestamp;temperature;humidity
6752;DHT22;3413;47.680;9.166;2023-05-29T00:00:03;20.90;62.10
6752;DHT22;3413;47.680;9.166;2023-05-29T00:05:11;20.80;62.00
6752;DHT22;3413;47.680;9.166;2023-05-29T00:10:14;20.70;62.20
6752;DHT22;3413;47.680;9.166;2023-05-29T00:15:17;20.70;62.20
6752;DHT22;3413;47.680;9.166;2023-05-29T00:20:19;20.60;62.20
6752;DHT22;3413;47.680;9.166;2023-05-29T00:25:21;20.60;62.20
6752;DHT22;3413;47.680;9.166;2023-05-29T00:30:23;20.60;62.20
6752;DHT22;3413;47.680;9.166;2023-05-29T00:35:25;20.50;62.20
6752;DHT22;3413;47.680;9.166;2023-05-29T00:40:27;20.30;62.20
6752;DHT22;3413;47.680;9.166;2023-05-29T00:45:29;20.20;62.30
6752;DHT22;3413;47.680;9.166;2023-05-29T00:50:32;20.10;62.20
6752;DHT22;3413;47.680;9.166;2023-05-29T00:55:34;19.90;62.20
6752;DHT22;3413;47.680;9.166;2023-05-29T01:00:36;19.80;62.30
6752;DHT22;3413;47.680;9.166;2023-05-29T01:05:40;19.70;62.20
6752;DHT22;3413;47.680;9.166;2023-05-29T01:10:43;19.60;62.30
6752;DHT22;3413;47.680;9.166;2023-05-29T01:15:58;19.50;62.40
6752;DHT22;3413;47.680;9.166;2023-05-29T01:21:23;19.40;62.40
6752;DHT22;3413;47.680;9.166;2023-05-29T01:31:46;19.50;62.40
6752;DHT22;3413;47.680;9.166;2023-05-29T01:36:50;19.40;62.40
6752;DHT22;3413;47.680;9.166;2023-05-29T01:41:52;19.20;62.40
6752;DHT22;3413;47.680;9.166;2023-05-29T01:46:55;19.10;62.50
6752;DHT22;3413;47.680;9.166;2023-05-29T01:51:58;19.00;62.50
6752;DHT22;3413;47.680;9.166;2023-05-29T01:57:01;19.00;62.40
6752;DHT22;3413;47.680;9.166;2023-05-29T02:02:09;19.00;62.40
6752;DHT22;3413;47.680;9.166;2023-05-29T02:07:11;18.90;62.40
6752;DHT22;3413;47.680;9.166;2023-05-29T02:12:13;18.80;62.30
6752;DHT22;3413;47.680;9.166;2023-05-29T02:17:15;18.60;62.40
6752;DHT22;3413;47.680;9.166;2023-05-29T02:22:18;18.50;62.40
6752;DHT22;3413;47.680;9.166;2023-05-29T02:27:20;18.40;62.40
6752;DHT22;3413;47.680;9.166;2023-05-29T02:32:22;18.30;62.60
6752;DHT22;3413;47.680;9.166;2023-05-29T02:37:24;18.00;62.50
6752;DHT22;3413;47.680;9.166;2023-05-29T02:42:27;18.00;62.60
6752;DHT22;3413;47.680;9.166;2023-05-29T02:47:29;18.00;62.50
6752;DHT22;3413;47.680;9.166;2023-05-29T02:52:34;18.10;62.60
6752;DHT22;3413;47.680;9.166;2023-05-29T02:57:38;18.10;62.80
6752;DHT22;3413;47.680;9.166;2023-05-29T03:02:40;18.00;62.70
6752;DHT22;3413;47.680;9.166;2023-05-29T03:07:42;18.00;62.80
6752;DHT22;3413;47.680;9.166;2023-05-29T03:12:44;18.00;62.80
6752;DHT22;3413;47.680;9.166;2023-05-29T03:17:47;17.90;62.90
6752;DHT22;3413;47.680;9.166;2023-05-29T03:23:36;17.90;62.80
6752;DHT22;3413;47.680;9.166;2023-05-29T03:29:05;17.80;63.00
6752;DHT22;3413;47.680;9.166;2023-05-29T03:34:49;17.70;63.00
6752;DHT22;3413;47.680;9.166;2023-05-29T03:40:23;17.60;62.90
6752;DHT22;3413;47.680;9.166;2023-05-29T03:45:36;17.50;62.90
6752;DHT22;3413;47.680;9.166;2023-05-29T03:50:46;17.40;62.80
6752;DHT22;3413;47.680;9.166;2023-05-29T03:56:02;17.40;63.00
6752;DHT22;3413;47.680;9.166;2023-05-29T04:01:14;17.30;63.00
6752;DHT22;3413;47.680;9.166;2023-05-29T04:06:23;17.30;63.00
6752;DHT22;3413;47.680;9.166;2023-05-29T04:11:36;17.30;63.10
6752;DHT22;3413;47.680;9.166;2023-05-29T04:16:46;17.30;63.20
6752;DHT22;3413;47.680;9.166;2023-05-29T04:27:02;17.30;63.30
6752;DHT22;3413;47.680;9.166;2023-05-29T04:32:04;17.40;63.40
6752;DHT22;3413;47.680;9.166;2023-05-29T04:37:07;17.40;63.40
6752;DHT22;3413;47.680;9.166;2023-05-29T04:42:09;17.40;63.50
6752;DHT22;3413;47.680;9.166;2023-05-29T04:47:11;17.50;63.70
6752;DHT22;3413;47.680;9.166;2023-05-29T04:52:16;17.60;63.90
6752;DHT22;3413;47.680;9.166;2023-05-29T04:57:18;17.60;64.10
6752;DHT22;3413;47.680;9.166;2023-05-29T05:02:20;17.70;64.30
6752;DHT22;3413;47.680;9.166;2023-05-29T05:07:22;17.80;64.40
6752;DHT22;3413;47.680;9.166;2023-05-29T05:12:24;17.90;64.60
6752;DHT22;3413;47.680;9.166;2023-05-29T05:17:26;17.90;64.60
6752;DHT22;3413;47.680;9.166;2023-05-29T05:22:28;18.00;64.80
6752;DHT22;3413;47.680;9.166;2023-05-29T05:27:31;18.10;64.90
6752;DHT22;3413;47.680;9.166;2023-05-29T05:32:33;18.20;65.00
6752;DHT22;3413;47.680;9.166;2023-05-29T05:37:40;18.30;65.10
6752;DHT22;3413;47.680;9.166;2023-05-29T05:42:43;18.40;65.30
6752;DHT22;3413;47.680;9.166;2023-05-29T05:47:47;18.60;65.40
6752;DHT22;3413;47.680;9.166;2023-05-29T05:52:49;18.70;65.50
6752;DHT22;3413;47.680;9.166;2023-05-29T05:57:52;18.80;65.70
6752;DHT22;3413;47.680;9.166;2023-05-29T06:02:54;18.90;65.90
6752;DHT22;3413;47.680;9.166;2023-05-29T06:08:09;19.00;66.00
6752;DHT22;3413;47.680;9.166;2023-05-29T06:13:12;19.10;66.10
6752;DHT22;3413;47.680;9.166;2023-05-29T06:18:20;19.20;66.30
6752;DHT22;3413;47.680;9.166;2023-05-29T06:23:22;19.30;66.70
6752;DHT22;3413;47.680;9.166;2023-05-29T06:28:25;19.40;67.30
6752;DHT22;3413;47.680;9.166;2023-05-29T06:33:27;19.50;66.70
6752;DHT22;3413;47.680;9.166;2023-05-29T06:38:31;19.60;66.70
6752;DHT22;3413;47.680;9.166;2023-05-29T06:43:33;19.80;66.90
6752;DHT22;3413;47.680;9.166;2023-05-29T06:48:37;19.90;67.00
6752;DHT22;3413;47.680;9.166;2023-05-29T06:53:40;20.00;67.00
6752;DHT22;3413;47.680;9.166;2023-05-29T06:58:44;20.10;67.10
6752;DHT22;3413;47.680;9.166;2023-05-29T07:03:52;20.20;67.20
6752;DHT22;3413;47.680;9.166;2023-05-29T07:08:54;20.40;67.40
6752;DHT22;3413;47.680;9.166;2023-05-29T07:13:57;20.50;67.30
6752;DHT22;3413;47.680;9.166;2023-05-29T07:19:00;20.70;67.40
6752;DHT22;3413;47.680;9.166;2023-05-29T07:24:05;20.80;67.60
6752;DHT22;3413;47.680;9.166;2023-05-29T07:29:10;21.00;67.70
6752;DHT22;3413;47.680;9.166;2023-05-29T07:34:13;21.10;67.80
6752;DHT22;3413;47.680;9.166;2023-05-29T07:39:17;21.30;67.90
6752;DHT22;3413;47.680;9.166;2023-05-29T07:44:19;21.40;67.90
6752;DHT22;3413;47.680;9.166;2023-05-29T07:49:22;21.40;67.90
6752;DHT22;3413;47.680;9.166;2023-05-29T07:54:24;21.60;68.00
6752;DHT22;3413;47.680;9.166;2023-05-29T07:59:26;21.70;68.10
6752;DHT22;3413;47.680;9.166;2023-05-29T08:04:28;21.90;68.20
6752;DHT22;3413;47.680;9.166;2023-05-29T08:09:31;22.10;68.50
6752;DHT22;3413;47.680;9.166;2023-05-29T08:14:33;22.20;68.50
6752;DHT22;3413;47.680;9.166;2023-05-29T08:19:37;22.40;68.70
6752;DHT22;3413;47.680;9.166;2023-05-29T08:24:39;22.60;68.90
6752;DHT22;3413;47.680;9.166;2023-05-29T08:29:41;22.90;69.10
6752;DHT22;3413;47.680;9.166;2023-05-29T08:34:44;23.10;69.20
6752;DHT22;3413;47.680;9.166;2023-05-29T08:39:47;23.40;69.30
6752;DHT22;3413;47.680;9.166;2023-05-29T08:44:50;23.60;69.60
6752;DHT22;3413;47.680;9.166;2023-05-29T08:49:56;23.90;69.80
6752;DHT22;3413;47.680;9.166;2023-05-29T08:55:00;24.20;70.00
6752;DHT22;3413;47.680;9.166;2023-05-29T09:00:02;24.50;70.10
6752;DHT22;3413;47.680;9.166;2023-05-29T09:05:11;24.80;70.30
6752;DHT22;3413;47.680;9.166;2023-05-29T09:10:14;25.10;70.40
6752;DHT22;3413;47.680;9.166;2023-05-29T09:15:21;25.30;70.40
6752;DHT22;3413;47.680;9.166;2023-05-29T09:20:27;25.50;70.40
6752;DHT22;3413;47.680;9.166;2023-05-29T09:25:31;25.70;70.40
6752;DHT22;3413;47.680;9.166;2023-05-29T09:30:35;25.80;70.40
6752;DHT22;3413;47.680;9.166;2023-05-29T09:35:48;26.10;70.40
6752;DHT22;3413;47.680;9.166;2023-05-29T09:40:50;26.30;70.50
6752;DHT22;3413;47.680;9.166;2023-05-29T09:45:54;26.40;70.20
6752;DHT22;3413;47.680;9.166;2023-05-29T09:50:56;26.60;70.30
6752;DHT22;3413;47.680;9.166;2023-05-29T09:56:01;26.80;70.20
6752;DHT22;3413;47.680;9.166;2023-05-29T10:01:04;27.00;70.10
6752;DHT22;3413;47.680;9.166;2023-05-29T10:06:06;27.20;69.90
6752;DHT22;3413;47.680;9.166;2023-05-29T10:11:11;27.40;70.00
6752;DHT22;3413;47.680;9.166;2023-05-29T10:16:20;27.50;69.90
6752;DHT22;3413;47.680;9.166;2023-05-29T10:21:27;27.60;69.80
6752;DHT22;3413;47.680;9.166;2023-05-29T10:26:30;27.70;69.80
6752;DHT22;3413;47.680;9.166;2023-05-29T10:42:48;28.20;69.70
6752;DHT22;3413;47.680;9.166;2023-05-29T10:47:55;28.20;69.60
6752;DHT22;3413;47.680;9.166;2023-05-29T10:52:57;28.40;69.70
6752;DHT22;3413;47.680;9.166;2023-05-29T10:58:07;28.40;69.30
6752;DHT22;3413;47.680;9.166;2023-05-29T11:03:10;28.60;69.30
6752;DHT22;3413;47.680;9.166;2023-05-29T11:08:12;28.70;69.20
6752;DHT22;3413;47.680;9.166;2023-05-29T11:13:26;28.70;69.00
6752;DHT22;3413;47.680;9.166;2023-05-29T11:18:29;28.80;68.90
6752;DHT22;3413;47.680;9.166;2023-05-29T11:23:32;28.90;68.70
6752;DHT22;3413;47.680;9.166;2023-05-29T11:28:34;29.00;68.50
6752;DHT22;3413;47.680;9.166;2023-05-29T11:33:40;29.10;68.50
6752;DHT22;3413;47.680;9.166;2023-05-29T11:38:45;29.20;68.40
6752;DHT22;3413;47.680;9.166;2023-05-29T11:44:01;29.40;68.40
6752;DHT22;3413;47.680;9.166;2023-05-29T11:49:04;29.70;68.30
6752;DHT22;3413;47.680;9.166;2023-05-29T11:54:07;29.80;68.30
6752;DHT22;3413;47.680;9.166;2023-05-29T11:59:11;30.00;68.20
6752;DHT22;3413;47.680;9.166;2023-05-29T12:04:16;30.10;68.00
6752;DHT22;3413;47.680;9.166;2023-05-29T12:09:28;30.20;67.90
6752;DHT22;3413;47.680;9.166;2023-05-29T12:14:30;30.20;67.80
6752;DHT22;3413;47.680;9.166;2023-05-29T12:19:33;30.20;67.70
6752;DHT22;3413;47.680;9.166;2023-05-29T12:24:35;30.30;67.50
6752;DHT22;3413;47.680;9.166;2023-05-29T12:29:44;30.40;67.60
6752;DHT22;3413;47.680;9.166;2023-05-29T12:34:49;30.50;67.30
6752;DHT22;3413;47.680;9.166;2023-05-29T12:40:14;30.60;67.10
6752;DHT22;3413;47.680;9.166;2023-05-29T12:45:25;30.70;67.10
6752;DHT22;3413;47.680;9.166;2023-05-29T12:50:31;30.80;66.90
6752;DHT22;3413;47.680;9.166;2023-05-29T12:55:35;30.90;66.90
6752;DHT22;3413;47.680;9.166;2023-05-29T13:00:43;31.00;66.80
6752;DHT22;3413;47.680;9.166;2023-05-29T13:05:45;31.20;66.80
6752;DHT22;3413;47.680;9.166;2023-05-29T13:10:47;31.20;66.60
6752;DHT22;3413;47.680;9.166;2023-05-29T13:15:49;31.30;66.40
6752;DHT22;3413;47.680;9.166;2023-05-29T13:20:51;31.40;66.10
6752;DHT22;3413;47.680;9.166;2023-05-29T13:25:53;31.40;65.90
6752;DHT22;3413;47.680;9.166;2023-05-29T13:30:56;31.40;65.90
6752;DHT22;3413;47.680;9.166;2023-05-29T13:35:58;31.40;65.60
6752;DHT22;3413;47.680;9.166;2023-05-29T13:41:00;31.40;65.40
6752;DHT22;3413;47.680;9.166;2023-05-29T13:46:03;31.50;65.20
6752;DHT22;3413;47.680;9.166;2023-05-29T13:51:05;31.60;65.20
6752;DHT22;3413;47.680;9.166;2023-05-29T13:56:07;31.50;64.80
6752;DHT22;3413;47.680;9.166;2023-05-29T14:01:10;31.60;64.80
6752;DHT22;3413;47.680;9.166;2023-05-29T14:06:12;31.50;64.50
6752;DHT22;3413;47.680;9.166;2023-05-29T14:11:15;31.70;64.30
6752;DHT22;3413;47.680;9.166;2023-05-29T14:16:17;31.70;64.20
6752;DHT22;3413;47.680;9.166;2023-05-29T14:21:20;31.70;64.20
6752;DHT22;3413;47.680;9.166;2023-05-29T14:26:22;31.60;63.90
6752;DHT22;3413;47.680;9.166;2023-05-29T14:31:24;31.60;63.70
6752;DHT22;3413;47.680;9.166;2023-05-29T14:36:27;31.50;63.20
6752;DHT22;3413;47.680;9.166;2023-05-29T14:41:29;31.50;63.10
6752;DHT22;3413;47.680;9.166;2023-05-29T14:46:31;31.50;62.90
6752;DHT22;3413;47.680;9.166;2023-05-29T14:51:34;31.50;62.70
6752;DHT22;3413;47.680;9.166;2023-05-29T14:56:38;31.60;62.60
6752;DHT22;3413;47.680;9.166;2023-05-29T15:01:40;31.50;62.30
6752;DHT22;3413;47.680;9.166;2023-05-29T15:06:42;31.40;62.20
6752;DHT22;3413;47.680;9.166;2023-05-29T15:11:50;31.30;62.00
6752;DHT22;3413;47.680;9.166;2023-05-29T15:16:52;31.40;62.10
6752;DHT22;3413;47.680;9.166;2023-05-29T15:21:54;31.50;62.10
6752;DHT22;3413;47.680;9.166;2023-05-29T15:26:56;31.50;61.80
6752;DHT22;3413;47.680;9.166;2023-05-29T15:32:01;31.40;61.90
6752;DHT22;3413;47.680;9.166;2023-05-29T15:37:03;31.40;62.00
6752;DHT22;3413;47.680;9.166;2023-05-29T15:42:06;31.40;61.80
6752;DHT22;3413;47.680;9.166;2023-05-29T15:47:12;31.40;61.80
6752;DHT22;3413;47.680;9.166;2023-05-29T15:52:14;31.30;61.60
6752;DHT22;3413;47.680;9.166;2023-05-29T15:57:16;31.30;61.60
6752;DHT22;3413;47.680;9.166;2023-05-29T16:02:18;31.30;61.50
6752;DHT22;3413;47.680;9.166;2023-05-29T16:07:20;31.20;61.60
6752;DHT22;3413;47.680;9.166;2023-05-29T16:12:23;31.10;61.60
6752;DHT22;3413;47.680;9.166;2023-05-29T16:17:26;31.20;61.50
6752;DHT22;3413;47.680;9.166;2023-05-29T16:22:28;31.10;61.50
6752;DHT22;3413;47.680;9.166;2023-05-29T16:27:43;31.10;61.40
6752;DHT22;3413;47.680;9.166;2023-05-29T16:32:45;31.10;61.30
6752;DHT22;3413;47.680;9.166;2023-05-29T16:37:47;31.10;61.40
6752;DHT22;3413;47.680;9.166;2023-05-29T16:48:19;30.90;61.20
6752;DHT22;3413;47.680;9.166;2023-05-29T16:53:21;30.70;61.20
6752;DHT22;3413;47.680;9.166;2023-05-29T16:58:23;30.70;61.10
6752;DHT22;3413;47.680;9.166;2023-05-29T17:03:25;30.50;61.00
6752;DHT22;3413;47.680;9.166;2023-05-29T17:08:28;30.30;60.80
6752;DHT22;3413;47.680;9.166;2023-05-29T17:13:30;30.30;60.90
6752;DHT22;3413;47.680;9.166;2023-05-29T17:18:32;30.40;60.80
6752;DHT22;3413;47.680;9.166;2023-05-29T17:23:34;30.40;60.70
6752;DHT22;3413;47.680;9.166;2023-05-29T17:28:37;30.50;60.70
6752;DHT22;3413;47.680;9.166;2023-05-29T17:33:39;30.30;60.60
6752;DHT22;3413;47.680;9.166;2023-05-29T17:38:41;30.10;60.50
6752;DHT22;3413;47.680;9.166;2023-05-29T17:43:43;30.00;60.50
6752;DHT22;3413;47.680;9.166;2023-05-29T17:48:46;29.90;60.40
6752;DHT22;3413;47.680;9.166;2023-05-29T17:53:49;29.60;60.40
6752;DHT22;3413;47.680;9.166;2023-05-29T17:58:51;29.50;60.30
6752;DHT22;3413;47.680;9.166;2023-05-29T18:03:53;29.30;60.30
6752;DHT22;3413;47.680;9.166;2023-05-29T18:08:55;29.10;60.20
6752;DHT22;3413;47.680;9.166;2023-05-29T18:13:57;28.90;60.10
6752;DHT22;3413;47.680;9.166;2023-05-29T18:18:59;28.80;60.00
6752;DHT22;3413;47.680;9.166;2023-05-29T18:24:01;28.60;59.80
6752;DHT22;3413;47.680;9.166;2023-05-29T18:29:04;28.30;59.80
6752;DHT22;3413;47.680;9.166;2023-05-29T18:34:06;28.10;59.90
6752;DHT22;3413;47.680;9.166;2023-05-29T18:39:08;27.80;59.70
6752;DHT22;3413;47.680;9.166;2023-05-29T18:44:10;27.70;59.70
6752;DHT22;3413;47.680;9.166;2023-05-29T18:49:12;27.60;59.60
6752;DHT22;3413;47.680;9.166;2023-05-29T18:54:14;27.50;59.60
6752;DHT22;3413;47.680;9.166;2023-05-29T18:59:18;27.30;59.50
6752;DHT22;3413;47.680;9.166;2023-05-29T19:04:20;27.20;59.40
6752;DHT22;3413;47.680;9.166;2023-05-29T19:09:22;27.10;59.40
6752;DHT22;3413;47.680;9.166;2023-05-29T19:14:24;27.00;59.40
6752;DHT22;3413;47.680;9.166;2023-05-29T19:19:26;26.80;59.20
6752;DHT22;3413;47.680;9.166;2023-05-29T19:24:28;26.70;59.20
6752;DHT22;3413;47.680;9.166;2023-05-29T19:29:30;26.60;59.20
6752;DHT22;3413;47.680;9.166;2023-05-29T19:34:32;26.40;59.00
6752;DHT22;3413;47.680;9.166;2023-05-29T19:39:34;26.30;59.00
6752;DHT22;3413;47.680;9.166;2023-05-29T19:44:36;26.30;58.90
6752;DHT22;3413;47.680;9.166;2023-05-29T19:49:38;26.10;58.80
6752;DHT22;3413;47.680;9.166;2023-05-29T19:54:41;26.00;58.80
6752;DHT22;3413;47.680;9.166;2023-05-29T19:59:43;25.90;58.80
6752;DHT22;3413;47.680;9.166;2023-05-29T20:04:50;25.70;58.70
6752;DHT22;3413;47.680;9.166;2023-05-29T20:09:52;25.60;58.70
6752;DHT22;3413;47.680;9.166;2023-05-29T20:14:54;25.50;58.60
6752;DHT22;3413;47.680;9.166;2023-05-29T20:19:57;25.30;58.60
6752;DHT22;3413;47.680;9.166;2023-05-29T20:24:59;25.20;58.50
6752;DHT22;3413;47.680;9.166;2023-05-29T20:30:02;25.00;58.50
6752;DHT22;3413;47.680;9.166;2023-05-29T20:35:08;24.90;58.40
6752;DHT22;3413;47.680;9.166;2023-05-29T20:40:11;24.70;58.40
6752;DHT22;3413;47.680;9.166;2023-05-29T20:45:14;24.60;58.30
6752;DHT22;3413;47.680;9.166;2023-05-29T20:50:16;24.50;58.20
6752;DHT22;3413;47.680;9.166;2023-05-29T20:55:18;24.40;58.20
6752;DHT22;3413;47.680;9.166;2023-05-29T21:00:20;24.30;58.10
6752;DHT22;3413;47.680;9.166;2023-05-29T21:05:23;24.20;58.10
6752;DHT22;3413;47.680;9.166;2023-05-29T21:10:25;24.10;58.00
6752;DHT22;3413;47.680;9.166;2023-05-29T21:15:27;23.90;57.90
6752;DHT22;3413;47.680;9.166;2023-05-29T21:20:30;23.80;57.80
6752;DHT22;3413;47.680;9.166;2023-05-29T21:25:32;23.80;57.80
6752;DHT22;3413;47.680;9.166;2023-05-29T21:30:34;23.70;57.80
6752;DHT22;3413;47.680;9.166;2023-05-29T21:35:36;23.60;57.80
6752;DHT22;3413;47.680;9.166;2023-05-29T21:40:38;23.50;57.80
6752;DHT22;3413;47.680;9.166;2023-05-29T21:45:40;23.50;57.80
6752;DHT22;3413;47.680;9.166;2023-05-29T21:50:44;23.50;57.70
6752;DHT22;3413;47.680;9.166;2023-05-29T21:55:47;23.50;57.80
6752;DHT22;3413;47.680;9.166;2023-05-29T22:00:49;23.40;57.70
6752;DHT22;3413;47.680;9.166;2023-05-29T22:05:51;23.30;57.70
6752;DHT22;3413;47.680;9.166;2023-05-29T22:10:53;23.30;57.70
6752;DHT22;3413;47.680;9.166;2023-05-29T22:15:56;23.20;57.70
6752;DHT22;3413;47.680;9.166;2023-05-29T22:20:58;23.20;57.70
6752;DHT22;3413;47.680;9.166;2023-05-29T22:26:04;23.20;57.70
6752;DHT22;3413;47.680;9.166;2023-05-29T22:31:07;23.20;57.70
6752;DHT22;3413;47.680;9.166;2023-05-29T22:36:09;23.20;57.80
6752;DHT22;3413;47.680;9.166;2023-05-29T22:41:10;23.10;57.80
6752;DHT22;3413;47.680;9.166;2023-05-29T22:46:14;23.10;57.80
6752;DHT22;3413;47.680;9.166;2023-05-29T22:51:41;23.10;57.90
6752;DHT22;3413;47.680;9.166;2023-05-29T22:56:45;23.10;57.80
6752;DHT22;3413;47.680;9.166;2023-05-29T23:01:48;23.10;57.90
6752;DHT22;3413;47.680;9.166;2023-05-29T23:06:52;22.90;57.90
6752;DHT22;3413;47.680;9.166;2023-05-29T23:11:54;22.80;58.00
6752;DHT22;3413;47.680;9.166;2023-05-29T23:16:57;22.70;58.00
6752;DHT22;3413;47.680;9.166;2023-05-29T23:21:59;22.60;57.90
6752;DHT22;3413;47.680;9.166;2023-05-29T23:27:01;22.50;57.90
6752;DHT22;3413;47.680;9.166;2023-05-29T23:32:04;22.50;57.90
6752;DHT22;3413;47.680;9.166;2023-05-29T23:37:06;22.30;58.00
6752;DHT22;3413;47.680;9.166;2023-05-29T23:42:08;22.10;58.00
6752;DHT22;3413;47.680;9.166;2023-05-29T23:47:13;22.00;57.90
6752;DHT22;3413;47.680;9.166;2023-05-29T23:52:15;21.90;57.80
6752;DHT22;3413;47.680;9.166;2023-05-29T23:57:17;21.80;57.70
